Time;durP1;ratioP1;P1;durP2;ratioP2;P2;SDS_P1;SDS_P2;PMS_P1;PMS_P2;Temp;Humidity;BMP_temperature;BMP_pressure;BME280_temperature;BME280_humidity;BME280_pressure;Samples;Min_cycle;Max_cycle;Signal;HPM_P1;HPM_P2
2022/08/01 00:01:44;;;;;;;4.00;3.53;;;19.40;99.90;;;;;;5009923;28;20030;-40
2022/08/01 00:04:09;;;;;;;3.40;3.10;;;19.40;99.90;;;;;;5005969;28;20026;-39
2022/08/01 00:06:35;;;;;;;3.30;3.10;;;19.40;99.40;;;;;;5010070;28;20030;-39
2022/08/01 00:09:01;;;;;;;3.42;3.17;;;19.40;99.30;;;;;;5011306;28;20034;-40
2022/08/01 00:11:26;;;;;;;3.67;3.30;;;19.40;99.50;;;;;;5010767;28;20060;-38
2022/08/01 00:13:53;;;;;;;3.50;3.20;;;19.40;99.10;;;;;;5010057;28;20429;-36
2022/08/01 00:16:19;;;;;;;4.25;3.83;;;19.40;99.20;;;;;;5010684;28;20029;-37
2022/08/01 00:18:44;;;;;;;4.00;3.70;;;19.30;99.90;;;;;;5008695;28;20087;-40
2022/08/01 00:21:10;;;;;;;4.07;3.78;;;19.30;99.40;;;;;;5007348;28;20057;-37
2022/08/01 00:23:36;;;;;;;3.33;3.10;;;19.30;99.60;;;;;;5011956;28;20042;-40
2022/08/01 00:26:02;;;;;;;3.92;3.60;;;19.30;99.60;;;;;;5010831;28;20034;-40
2022/08/01 00:28:27;;;;;;;6.93;3.60;;;19.10;99.90;;;;;;5008498;28;20041;-37
2022/08/01 00:30:53;;;;;;;3.60;3.30;;;19.10;99.90;;;;;;5007896;28;20045;-38
2022/08/01 00:33:19;;;;;;;4.68;3.55;;;19.10;99.90;;;;;;5007990;28;20526;-40
2022/08/01 00:35:44;;;;;;;3.40;3.10;;;19.10;99.90;;;;;;5007528;28;20480;-37
2022/08/01 00:38:10;;;;;;;4.95;3.42;;;19.10;99.90;;;;;;5006497;28;20058;-36
2022/08/01 00:40:36;;;;;;;3.67;3.10;;;19.10;99.90;;;;;;5005437;28;20026;-36
2022/08/01 00:43:02;;;;;;;3.80;3.40;;;19.10;99.90;;;;;;5009363;28;20036;-37
2022/08/01 00:45:28;;;;;;;3.53;3.22;;;19.00;99.90;;;;;;5010493;28;20042;-38
2022/08/01 00:47:53;;;;;;;5.35;3.72;;;19.00;99.90;;;;;;5009545;28;20080;-39
2022/08/01 00:50:19;;;;;;;5.18;4.05;;;18.80;99.90;;;;;;5010055;28;20065;-36
2022/08/01 00:52:45;;;;;;;4.03;3.67;;;18.30;99.90;;;;;;5003455;28;20033;-38
2022/08/01 00:55:12;;;;;;;3.85;3.47;;;17.90;99.90;;;;;;5008453;28;20064;-36
2022/08/01 00:57:39;;;;;;;4.35;3.80;;;17.60;99.90;;;;;;5007194;28;20061;-40
2022/08/01 01:00:06;;;;;;;4.35;3.90;;;17.40;99.90;;;;;;5006893;28;20034;-39
2022/08/01 01:02:32;;;;;;;4.00;3.70;;;17.40;99.90;;;;;;5007439;28;20060;-38
2022/08/01 01:04:58;;;;;;;3.78;3.47;;;17.30;99.90;;;;;;5005364;28;20030;-38
2022/08/01 01:07:51;;;;;;;4.30;3.90;;;17.20;99.90;;;;;;5007343;28;20381;-36
2022/08/01 01:10:24;;;;;;;4.03;3.63;;;17.30;99.90;;;;;;5003641;28;20048;-36
2022/08/01 01:13:05;;;;;;;4.05;3.75;;;17.40;99.90;;;;;;5004740;28;20040;-38
2022/08/01 01:15:48;;;;;;;4.70;4.10;;;17.10;99.90;;;;;;5006351;28;20022;-36
2022/08/01 01:18:17;;;;;;;4.50;4.10;;;16.90;99.90;;;;;;5006061;28;20025;-37
2022/08/01 01:20:50;;;;;;;4.88;3.92;;;16.70;99.90;;;;;;5004339;28;20034;-38
2022/08/01 01:23:45;;;;;;;4.30;4.00;;;16.50;99.90;;;;;;5005095;28;20030;-36
2022/08/01 01:26:32;;;;;;;7.20;4.00;;;16.30;99.90;;;;;;5005996;28;20097;-39
2022/08/01 01:29:13;;;;;;;5.07;4.10;;;16.20;99.90;;;;;;5003061;28;20667;-37
2022/08/01 01:32:33;;;;;;;5.55;4.80;;;16.10;99.90;;;;;;5004479;28;20037;-37
2022/08/01 01:35:06;;;;;;;4.05;3.58;;;16.30;99.90;;;;;;4982449;28;20213;-37
2022/08/01 01:37:33;;;;;;;4.35;4.00;;;16.60;99.90;;;;;;4983052;28;20045;-37
2022/08/01 01:40:00;;;;;;;4.00;3.70;;;16.80;99.90;;;;;;4996549;28;20566;-39
2022/08/01 01:42:27;;;;;;;5.50;3.60;;;17.00;99.90;;;;;;5007316;28;20072;-37
2022/08/01 01:44:54;;;;;;;4.10;3.80;;;17.10;99.90;;;;;;5005062;28;20434;-38
2022/08/01 01:47:22;;;;;;;4.07;3.67;;;17.20;99.90;;;;;;5006481;28;20018;-39
2022/08/01 01:49:49;;;;;;;4.20;3.80;;;17.30;99.90;;;;;;5005996;28;20065;-37
2022/08/01 01:52:17;;;;;;;4.30;3.95;;;17.40;99.90;;;;;;5006883;28;20280;-38
2022/08/01 01:54:50;;;;;;;3.92;3.63;;;17.20;99.90;;;;;;5007120;28;20113;-39
2022/08/01 01:57:17;;;;;;;4.28;3.78;;;16.90;99.90;;;;;;5008088;28;20029;-37
2022/08/01 01:59:45;;;;;;;4.25;3.85;;;16.70;99.90;;;;;;5002169;28;20042;-37
2022/08/01 02:02:12;;;;;;;6.25;4.25;;;16.60;99.90;;;;;;5004666;28;20038;-39
2022/08/01 02:04:45;;;;;;;5.23;3.70;;;16.60;99.90;;;;;;5001459;28;20109;-37
2022/08/01 02:07:14;;;;;;;4.30;3.90;;;16.70;99.90;;;;;;5001552;28;20030;-37
2022/08/01 02:09:42;;;;;;;4.20;3.80;;;16.90;99.90;;;;;;4999598;28;20037;-39
2022/08/01 02:12:11;;;;;;;4.00;3.60;;;17.00;99.90;;;;;;5004272;28;20484;-37
2022/08/01 02:14:39;;;;;;;4.22;3.83;;;17.20;99.90;;;;;;5004984;28;20492;-39
2022/08/01 02:17:05;;;;;;;;;;;17.30;99.90;;;;;;5005158;28;20022;-39
2022/08/01 02:19:33;;;;;;;6.28;3.83;;;17.30;99.90;;;;;;5004252;28;19909;-39
2022/08/01 02:22:04;;;;;;;5.03;3.50;;;17.30;99.90;;;;;;5004305;28;20022;-38
2022/08/01 02:24:48;;;;;;;3.92;3.50;;;17.40;99.90;;;;;;5007281;28;20081;-40
2022/08/01 02:27:43;;;;;;;4.40;3.35;;;17.40;99.90;;;;;;5005771;28;20031;-39
2022/08/01 02:30:12;;;;;;;4.13;3.45;;;17.40;99.90;;;;;;4995186;28;20041;-39
2022/08/01 02:32:45;;;;;;;5.07;3.45;;;17.50;99.90;;;;;;5005186;28;20128;-36
2022/08/01 02:35:23;;;;;;;5.30;3.90;;;17.50;99.90;;;;;;5006575;28;20030;-37
2022/08/01 02:37:49;;;;;;;3.45;3.15;;;17.60;99.90;;;;;;5008218;28;20140;-38
2022/08/01 02:40:17;;;;;;;3.50;3.20;;;17.60;99.90;;;;;;5005520;28;20093;-39
2022/08/01 02:42:47;;;;;;;3.38;3.08;;;17.60;99.90;;;;;;5009052;28;20028;-40
2022/08/01 02:45:14;;;;;;;3.88;3.30;;;17.60;99.90;;;;;;5004619;28;20092;-39
2022/08/01 02:47:41;;;;;;;3.47;3.17;;;17.60;99.90;;;;;;5007691;28;20079;-39
2022/08/01 02:50:11;;;;;;;3.78;3.40;;;17.60;99.90;;;;;;5003053;28;20034;-38
2022/08/01 02:52:39;;;;;;;3.63;3.33;;;17.70;99.90;;;;;;5005052;28;20042;-39
2022/08/01 02:55:05;;;;;;;;;;;17.70;99.90;;;;;;5007841;28;20046;-40
2022/08/01 02:57:32;;;;;;;4.90;3.58;;;17.60;99.90;;;;;;5005169;28;19921;-39
2022/08/01 02:59:59;;;;;;;3.47;3.22;;;17.70;99.90;;;;;;5005989;28;20372;-37
2022/08/01 03:02:25;;;;;;;5.10;3.08;;;17.70;99.90;;;;;;5004460;28;20411;-39
2022/08/01 03:04:53;;;;;;;4.20;3.40;;;17.70;99.90;;;;;;5005948;28;20037;-39
2022/08/01 03:07:20;;;;;;;4.38;3.67;;;17.70;99.90;;;;;;5004297;28;20026;-36
2022/08/01 03:09:48;;;;;;;3.38;3.08;;;17.70;99.90;;;;;;5005777;28;20048;-38
2022/08/01 03:12:25;;;;;;;4.55;3.30;;;17.70;99.90;;;;;;5005809;28;20038;-39
2022/08/01 03:14:53;;;;;;;3.78;3.15;;;17.60;99.90;;;;;;5007356;28;20029;-39
2022/08/01 03:17:22;;;;;;;4.20;3.38;;;17.60;99.90;;;;;;5006041;28;20695;-37
2022/08/01 03:19:49;;;;;;;4.03;3.55;;;17.60;99.90;;;;;;5004304;28;20034;-39
2022/08/01 03:22:16;;;;;;;3.33;3.13;;;17.60;99.90;;;;;;5006186;28;20456;-37
2022/08/01 03:24:43;;;;;;;3.40;3.10;;;17.50;99.90;;;;;;5004274;28;20042;-37
2022/08/01 03:27:11;;;;;;;5.45;3.08;;;17.40;99.90;;;;;;5004817;28;20026;-39
2022/08/01 03:29:38;;;;;;;4.10;3.00;;;17.50;99.90;;;;;;5005625;28;20628;-37
2022/08/01 03:32:06;;;;;;;5.00;3.17;;;17.40;99.90;;;;;;5005429;28;20133;-36
2022/08/01 03:34:31;;;;;;;3.58;2.88;;;17.40;99.90;;;;;;5004458;28;20058;-38
2022/08/01 03:37:09;;;;;;;4.03;3.63;;;17.40;99.90;;;;;;5005560;28;20046;-37
2022/08/01 03:39:58;;;;;;;3.72;3.42;;;17.40;99.90;;;;;;5007004;28;20749;-39
2022/08/01 03:42:34;;;;;;;2.92;2.70;;;17.30;99.90;;;;;;5006913;28;20756;-36
2022/08/01 03:45:05;;;;;;;3.42;3.10;;;17.20;99.90;;;;;;5006962;28;20083;-36
2022/08/01 03:47:33;;;;;;;3.60;3.22;;;17.20;99.90;;;;;;5003265;28;20030;-39
2022/08/01 03:50:01;;;;;;;6.18;3.20;;;17.20;99.90;;;;;;5005042;28;20041;-37
2022/08/01 03:52:29;;;;;;;3.45;3.20;;;17.30;99.90;;;;;;5004922;28;20390;-38
2022/08/01 03:54:58;;;;;;;5.10;2.88;;;17.30;99.90;;;;;;5005554;28;20034;-36
2022/08/01 03:57:28;;;;;;;3.20;3.00;;;17.40;99.90;;;;;;5005258;28;20033;-39
2022/08/01 03:59:54;;;;;;;4.10;3.30;;;17.40;99.90;;;;;;5006004;28;20378;-39
2022/08/01 04:02:21;;;;;;;4.10;3.70;;;17.30;99.90;;;;;;5000506;28;20030;-39
2022/08/01 04:04:47;;;;;;;3.63;3.33;;;17.40;99.90;;;;;;5005875;28;20034;-38
2022/08/01 04:07:31;;;;;;;5.93;3.20;;;17.40;99.90;;;;;;5006291;28;20612;-38
2022/08/01 04:09:57;;;;;;;3.67;3.28;;;17.40;99.90;;;;;;5016835;28;20419;-39
2022/08/01 04:12:24;;;;;;;3.50;3.20;;;17.40;99.90;;;;;;5004809;28;20042;-38
2022/08/01 04:14:50;;;;;;;3.40;3.13;;;17.40;99.90;;;;;;5005158;28;20067;-39
2022/08/01 04:17:16;;;;;;;3.75;3.00;;;17.40;99.90;;;;;;5003438;28;20033;-40
2022/08/01 04:19:43;;;;;;;4.55;3.15;;;17.40;99.90;;;;;;5003867;28;20030;-36
2022/08/01 04:22:11;;;;;;;3.90;3.40;;;17.40;99.90;;;;;;5003959;28;20030;-38
2022/08/01 04:24:37;;;;;;;3.40;3.10;;;17.50;99.90;;;;;;5006504;28;20057;-39
2022/08/01 04:27:09;;;;;;;4.07;3.65;;;17.50;99.90;;;;;;5005882;28;20030;-37
2022/08/01 04:29:36;;;;;;;4.38;3.10;;;17.50;99.90;;;;;;5006113;28;20160;-38
2022/08/01 04:32:03;;;;;;;3.70;3.38;;;17.50;99.90;;;;;;5001848;28;20093;-40
2022/08/01 04:34:31;;;;;;;3.97;3.20;;;17.50;99.90;;;;;;5006908;28;20483;-38
2022/08/01 04:36:57;;;;;;;;;;;17.50;99.90;;;;;;5005784;28;20022;-37
2022/08/01 04:39:30;;;;;;;4.47;3.67;;;17.60;99.90;;;;;;5007139;28;20375;-39
2022/08/01 04:41:59;;;;;;;3.85;3.47;;;17.60;99.90;;;;;;5007893;28;20037;-40
2022/08/01 04:44:27;;;;;;;6.22;3.38;;;17.70;99.90;;;;;;5006711;28;20029;-38
2022/08/01 04:46:54;;;;;;;4.13;3.22;;;17.70;99.90;;;;;;5008489;28;20046;-39
2022/08/01 04:49:24;;;;;;;3.67;3.37;;;17.70;99.90;;;;;;5009891;28;20115;-39
2022/08/01 04:51:59;;;;;;;3.92;3.40;;;17.80;99.90;;;;;;5006756;28;20036;-37
2022/08/01 04:54:29;;;;;;;4.18;3.10;;;17.80;99.90;;;;;;5009802;28;20041;-39
2022/08/01 04:56:59;;;;;;;4.90;3.40;;;17.80;99.90;;;;;;5006124;28;20074;-38
2022/08/01 04:59:40;;;;;;;6.57;3.70;;;17.70;99.90;;;;;;5005211;28;20129;-40
2022/08/01 05:02:18;;;;;;;4.63;3.15;;;17.80;99.90;;;;;;5010065;28;20440;-38
2022/08/01 05:04:45;;;;;;;4.53;3.23;;;18.00;99.90;;;;;;5013111;28;20516;-38
2022/08/01 05:07:12;;;;;;;3.45;3.03;;;18.10;99.90;;;;;;5008943;28;20072;-37
2022/08/01 05:09:41;;;;;;;4.80;3.20;;;18.20;99.90;;;;;;5010109;28;20530;-40
2022/08/01 05:12:08;;;;;;;3.08;2.88;;;18.30;99.90;;;;;;5007997;28;20057;-38
2022/08/01 05:14:34;;;;;;;3.25;2.97;;;18.30;99.90;;;;;;5008400;28;20025;-40
2022/08/01 05:17:02;;;;;;;4.68;3.10;;;18.50;99.90;;;;;;5007633;28;21334;-40
2022/08/01 05:19:32;;;;;;;3.20;2.90;;;18.50;99.90;;;;;;5007445;28;20031;-40
2022/08/01 05:22:00;;;;;;;3.20;2.85;;;18.60;99.90;;;;;;5006138;28;20030;-39
2022/08/01 05:24:29;;;;;;;3.25;2.95;;;18.60;99.70;;;;;;5002928;28;20034;-39
2022/08/01 05:26:59;;;;;;;3.15;2.83;;;18.70;99.90;;;;;;5008121;28;20455;-39
2022/08/01 05:29:25;;;;;;;3.83;2.70;;;18.70;99.90;;;;;;5009964;28;20112;-40
2022/08/01 05:31:51;;;;;;;6.03;3.17;;;18.70;99.10;;;;;;5009196;28;20037;-37
2022/08/01 05:34:17;;;;;;;3.00;2.72;;;18.70;99.40;;;;;;5007849;28;20038;-39
2022/08/01 05:36:43;;;;;;;4.88;2.90;;;18.80;99.40;;;;;;5009422;28;20116;-36
2022/08/01 05:39:09;;;;;;;4.82;3.03;;;18.90;98.60;;;;;;5007599;28;20443;-37
2022/08/01 05:41:36;;;;;;;3.15;2.88;;;19.10;98.40;;;;;;5005280;28;20040;-39
2022/08/01 05:44:03;;;;;;;3.42;3.05;;;19.20;97.50;;;;;;5004898;28;20034;-39
2022/08/01 05:46:30;;;;;;;3.78;2.65;;;19.30;97.60;;;;;;5008973;28;20038;-37
2022/08/01 05:48:59;;;;;;;3.20;2.92;;;19.50;96.20;;;;;;5025190;28;20029;-40
2022/08/01 05:51:25;;;;;;;4.47;2.90;;;19.60;96.80;;;;;;5006731;28;20441;-39
2022/08/01 05:53:51;;;;;;;3.38;2.58;;;19.80;96.50;;;;;;5005616;28;20059;-39
2022/08/01 05:56:17;;;;;;;3.20;2.90;;;19.90;96.60;;;;;;5010812;28;20033;-38
2022/08/01 05:58:43;;;;;;;3.65;2.85;;;20.00;95.50;;;;;;5009457;28;20026;-39
2022/08/01 06:01:09;;;;;;;2.70;2.35;;;20.20;95.00;;;;;;5008566;28;20049;-36
2022/08/01 06:03:35;;;;;;;2.85;2.60;;;20.20;94.50;;;;;;5005632;28;20026;-37
2022/08/01 06:06:01;;;;;;;4.82;2.80;;;20.40;95.20;;;;;;5009869;28;20022;-38
2022/08/01 06:08:27;;;;;;;3.15;2.85;;;20.40;94.90;;;;;;5010733;28;20137;-38
2022/08/01 06:10:52;;;;;;;4.10;2.65;;;20.60;94.50;;;;;;5006129;28;20078;-40
2022/08/01 06:13:19;;;;;;;3.22;2.92;;;20.60;94.20;;;;;;5007059;28;20025;-37
2022/08/01 06:15:45;;;;;;;2.67;2.47;;;20.70;94.10;;;;;;5005447;28;20555;-38
2022/08/01 06:18:11;;;;;;;3.08;2.40;;;20.90;94.60;;;;;;5007503;28;20104;-39
2022/08/01 06:20:36;;;;;;;3.72;2.70;;;21.10;93.10;;;;;;5009561;28;20076;-40
2022/08/01 06:23:02;;;;;;;3.60;2.42;;;21.10;93.60;;;;;;5008686;28;20041;-36
2022/08/01 06:25:28;;;;;;;3.22;2.72;;;21.30;92.70;;;;;;5024884;28;20045;-37
2022/08/01 06:27:54;;;;;;;2.92;2.58;;;21.50;91.70;;;;;;5009988;28;20036;-39
2022/08/01 06:30:20;;;;;;;3.13;2.38;;;21.80;92.30;;;;;;5009239;28;20038;-39
2022/08/01 06:32:47;;;;;;;2.42;2.22;;;22.00;91.60;;;;;;5022937;28;21783;-38
2022/08/01 06:35:13;;;;;;;2.50;2.30;;;22.20;88.30;;;;;;5009398;28;20034;-36
2022/08/01 06:37:38;;;;;;;4.55;2.70;;;22.30;90.00;;;;;;5004488;28;20376;-36
2022/08/01 06:40:06;;;;;;;2.60;2.40;;;22.10;86.90;;;;;;5007122;28;20037;-39
2022/08/01 06:42:35;;;;;;;3.67;2.40;;;22.40;88.50;;;;;;5007869;28;20077;-39
2022/08/01 06:45:02;;;;;;;4.43;2.70;;;22.20;84.80;;;;;;5006504;28;20042;-39
2022/08/01 06:47:28;;;;;;;3.00;2.80;;;21.90;86.00;;;;;;5009290;28;20037;-37
2022/08/01 06:49:53;;;;;;;3.05;1.88;;;22.00;89.50;;;;;;5008558;28;20045;-38
2022/08/01 06:52:19;;;;;;;3.10;2.63;;;22.30;85.20;;;;;;5022904;28;20077;-36
2022/08/01 06:54:45;;;;;;;2.80;2.40;;;22.10;85.40;;;;;;5008916;28;20046;-38
2022/08/01 06:57:10;;;;;;;5.10;2.53;;;22.10;86.40;;;;;;5008686;28;20028;-39
2022/08/01 06:59:36;;;;;;;2.20;2.00;;;21.70;90.70;;;;;;5007790;28;20022;-38
2022/08/01 07:02:02;;;;;;;2.70;2.38;;;21.60;88.30;;;;;;5008973;28;20168;-37
2022/08/01 07:04:27;;;;;;;2.50;2.30;;;21.30;89.90;;;;;;5009383;28;20033;-36
2022/08/01 07:06:53;;;;;;;2.60;2.40;;;21.30;91.10;;;;;;5007045;28;20060;-37
2022/08/01 07:09:19;;;;;;;3.58;2.50;;;21.40;91.30;;;;;;5008957;28;20092;-40
2022/08/01 07:11:44;;;;;;;3.25;2.33;;;21.60;91.30;;;;;;5009412;28;20088;-37
2022/08/01 07:14:10;;;;;;;2.42;2.22;;;21.80;89.80;;;;;;5010102;28;20041;-36
2022/08/01 07:16:35;;;;;;;2.80;2.53;;;22.10;91.20;;;;;;5010103;28;20101;-36
2022/08/01 07:19:01;;;;;;;3.22;2.35;;;22.30;90.00;;;;;;5009386;28;20072;-39
2022/08/01 07:21:27;;;;;;;3.65;2.33;;;22.70;86.70;;;;;;5010416;28;20041;-38
2022/08/01 07:23:52;;;;;;;2.75;2.50;;;22.80;85.60;;;;;;5009996;28;20099;-39
2022/08/01 07:26:18;;;;;;;2.45;2.25;;;22.90;87.00;;;;;;5008669;28;20379;-37
2022/08/01 07:28:43;;;;;;;2.67;2.47;;;23.10;85.80;;;;;;5008027;28;20519;-39
2022/08/01 07:31:09;;;;;;;2.35;2.15;;;23.20;81.80;;;;;;5005194;28;20042;-38
2022/08/01 07:33:34;;;;;;;5.22;2.42;;;23.20;80.20;;;;;;5003341;28;20659;-39
2022/08/01 07:36:00;;;;;;;2.83;2.15;;;23.40;84.20;;;;;;5009345;28;20021;-39
2022/08/01 07:38:26;;;;;;;3.20;2.30;;;23.70;79.70;;;;;;5007204;28;20045;-36
2022/08/01 07:40:51;;;;;;;2.60;2.40;;;23.80;77.10;;;;;;5007747;28;20026;-36
2022/08/01 07:43:17;;;;;;;2.65;2.40;;;23.40;77.80;;;;;;5007699;28;20037;-38
2022/08/01 07:45:42;;;;;;;2.20;2.00;;;23.70;79.90;;;;;;5022980;28;20534;-38
2022/08/01 07:48:08;;;;;;;4.15;2.15;;;23.70;79.80;;;;;;5007335;28;20541;-36
2022/08/01 07:50:34;;;;;;;3.88;1.92;;;23.90;78.40;;;;;;5007649;28;20140;-39
2022/08/01 07:53:00;;;;;;;1.77;1.67;;;23.90;83.00;;;;;;5004819;28;20029;-39
2022/08/01 07:55:26;;;;;;;2.63;1.92;;;23.50;75.60;;;;;;5005451;28;20053;-37
2022/08/01 07:57:52;;;;;;;2.53;2.03;;;23.30;79.40;;;;;;5008817;28;20028;-39
2022/08/01 08:00:18;;;;;;;2.58;2.00;;;23.50;79.20;;;;;;5007480;28;20030;-39
2022/08/01 08:02:44;;;;;;;2.70;2.05;;;23.90;75.30;;;;;;5007946;28;20073;-39
2022/08/01 08:05:10;;;;;;;2.92;1.90;;;23.70;74.00;;;;;;5007833;28;20104;-36
2022/08/01 08:07:36;;;;;;;2.35;2.08;;;23.40;77.70;;;;;;5005763;28;20040;-39
2022/08/01 08:10:03;;;;;;;2.35;2.00;;;23.50;78.10;;;;;;5006698;28;20464;-39
2022/08/01 08:12:28;;;;;;;2.22;2.03;;;23.70;77.70;;;;;;5010100;28;20034;-38
2022/08/01 08:14:54;;;;;;;5.63;2.40;;;24.30;74.50;;;;;;5012802;28;20034;-36
2022/08/01 08:17:20;;;;;;;3.92;1.98;;;24.20;73.90;;;;;;5007719;28;20578;-39
2022/08/01 08:19:45;;;;;;;2.25;2.08;;;24.00;71.10;;;;;;5008778;28;20034;-40
2022/08/01 08:22:11;;;;;;;2.10;1.92;;;24.00;74.60;;;;;;5008021;28;20030;-39
2022/08/01 08:24:37;;;;;;;3.20;1.70;;;24.10;72.60;;;;;;5004597;28;20568;-39
2022/08/01 08:27:03;;;;;;;2.28;2.08;;;23.90;73.20;;;;;;5009903;28;20022;-39
2022/08/01 08:29:32;;;;;;;2.17;1.98;;;24.00;76.50;;;;;;5012597;28;20502;-35
2022/08/01 08:31:59;;;;;;;1.83;1.65;;;24.20;73.30;;;;;;5007566;28;20038;-39
2022/08/01 08:34:26;;;;;;;2.10;1.90;;;24.30;73.70;;;;;;5011399;28;20025;-36
2022/08/01 08:36:52;;;;;;;2.67;1.95;;;24.40;71.60;;;;;;5011457;28;20483;-40
2022/08/01 08:39:18;;;;;;;2.20;2.00;;;24.30;70.60;;;;;;5007843;28;20155;-36
2022/08/01 08:41:44;;;;;;;2.05;1.88;;;24.60;69.90;;;;;;5010491;28;20033;-37
2022/08/01 08:44:10;;;;;;;2.28;1.73;;;24.70;73.30;;;;;;5010961;28;20080;-37
2022/08/01 08:46:44;;;;;;;2.20;1.77;;;24.90;63.60;;;;;;5010651;28;20034;-39
2022/08/01 08:49:11;;;;;;;2.70;1.55;;;25.10;67.10;;;;;;5008876;28;20041;-40
2022/08/01 08:51:41;;;;;;;2.60;1.77;;;25.60;62.80;;;;;;5009388;28;20052;-36
2022/08/01 08:54:10;;;;;;;1.55;1.40;;;25.10;65.60;;;;;;5010236;28;20034;-37
2022/08/01 08:56:38;;;;;;;1.67;1.55;;;25.00;63.20;;;;;;5009943;28;20073;-37
2022/08/01 08:59:04;;;;;;;1.88;1.60;;;25.20;62.70;;;;;;5009648;28;20065;-37
2022/08/01 09:01:35;;;;;;;1.80;1.70;;;25.50;63.40;;;;;;5011241;28;20037;-38
2022/08/01 09:04:02;;;;;;;1.60;1.50;;;26.10;61.40;;;;;;5008466;28;20026;-37
2022/08/01 09:06:29;;;;;;;1.98;1.63;;;25.60;61.50;;;;;;5008111;28;20036;-38
2022/08/01 09:08:55;;;;;;;1.40;1.30;;;25.60;59.70;;;;;;5010412;28;20029;-38
2022/08/01 09:11:21;;;;;;;1.40;1.30;;;25.60;58.00;;;;;;5009194;28;20030;-38
2022/08/01 09:14:08;;;;;;;2.10;1.60;;;25.90;60.30;;;;;;5011077;28;20041;-38
2022/08/01 09:16:34;;;;;;;1.42;1.33;;;25.70;59.20;;;;;;5007875;28;20083;-36
2022/08/01 09:19:10;;;;;;;1.58;1.48;;;25.70;59.40;;;;;;5009849;28;20487;-39
2022/08/01 09:21:37;;;;;;;2.80;1.20;;;25.40;58.50;;;;;;5008065;28;20022;-37
2022/08/01 09:24:05;;;;;;;1.63;1.50;;;25.50;59.00;;;;;;5007563;28;20059;-38
2022/08/01 09:26:36;;;;;;;2.47;1.60;;;25.30;61.40;;;;;;5006117;28;20040;-37
2022/08/01 09:29:05;;;;;;;2.42;1.50;;;25.10;59.80;;;;;;5010290;28;20034;-39
2022/08/01 09:31:42;;;;;;;1.42;1.33;;;24.70;62.20;;;;;;5006201;28;20036;-38
2022/08/01 09:34:09;;;;;;;;;;;24.90;64.80;;;;;;5006663;28;20498;-37
2022/08/01 09:37:05;;;;;;;1.75;1.65;;;24.90;61.80;;;;;;5008608;28;19919;-38
2022/08/01 09:39:36;;;;;;;1.85;1.50;;;24.70;61.70;;;;;;4993869;28;20770;-39
2022/08/01 09:42:22;;;;;;;1.60;1.50;;;24.70;63.10;;;;;;5008854;28;20036;-36
2022/08/01 09:44:48;;;;;;;1.75;1.40;;;24.70;65.50;;;;;;5008671;28;20462;-38
2022/08/01 09:47:14;;;;;;;1.88;1.48;;;25.10;66.90;;;;;;5007304;28;20041;-37
2022/08/01 09:49:41;;;;;;;1.65;1.45;;;25.20;60.50;;;;;;5007685;28;20104;-37
2022/08/01 09:52:27;;;;;;;1.83;1.52;;;24.90;61.20;;;;;;5008898;28;20062;-36
2022/08/01 09:55:04;;;;;;;1.25;1.20;;;24.90;60.90;;;;;;5006066;28;20451;-39
2022/08/01 09:57:30;;;;;;;2.10;1.58;;;24.70;63.70;;;;;;5004469;28;20022;-39
2022/08/01 09:59:57;;;;;;;2.65;1.60;;;24.60;64.40;;;;;;5008094;28;20113;-36
2022/08/01 10:02:31;;;;;;;1.48;1.38;;;24.50;60.80;;;;;;5006562;28;20475;-36
2022/08/01 10:04:58;;;;;;;1.73;1.17;;;24.40;62.30;;;;;;5005369;28;20030;-37
2022/08/01 10:07:23;;;;;;;1.65;1.55;;;24.40;64.40;;;;;;5008038;28;20029;-36
2022/08/01 10:09:49;;;;;;;3.92;1.70;;;24.50;63.50;;;;;;5008825;28;20030;-39
2022/08/01 10:12:18;;;;;;;3.80;1.80;;;24.50;60.50;;;;;;5003468;28;20022;-39
2022/08/01 10:14:46;;;;;;;2.13;1.48;;;24.90;62.70;;;;;;5006661;28;20098;-36
2022/08/01 10:17:15;;;;;;;3.17;1.52;;;25.40;60.30;;;;;;5006094;28;20028;-39
2022/08/01 10:19:43;;;;;;;1.45;1.35;;;25.90;59.70;;;;;;5003452;28;20037;-38
2022/08/01 10:22:10;;;;;;;1.60;1.50;;;26.00;58.90;;;;;;5004262;28;20025;-39
2022/08/01 10:24:40;;;;;;;1.40;1.30;;;26.40;53.60;;;;;;5006567;28;20125;-38
2022/08/01 10:27:10;;;;;;;1.70;1.60;;;26.50;54.60;;;;;;5007319;28;20368;-39
2022/08/01 10:29:45;;;;;;;2.22;1.50;;;26.40;55.30;;;;;;5009092;28;20029;-39
2022/08/01 10:32:11;;;;;;;1.20;1.10;;;26.60;56.70;;;;;;5006961;28;20034;-40
2022/08/01 10:34:37;;;;;;;1.70;1.60;;;26.20;55.10;;;;;;5006852;28;20045;-40
2022/08/01 10:37:05;;;;;;;1.65;1.40;;;26.30;55.60;;;;;;5006059;28;20030;-39
2022/08/01 10:39:32;;;;;;;2.58;1.48;;;26.60;56.00;;;;;;5006931;28;20042;-39
2022/08/01 10:41:59;;;;;;;1.63;1.35;;;26.90;54.70;;;;;;5006479;28;20121;-38
2022/08/01 10:44:25;;;;;;;1.80;1.50;;;26.30;54.50;;;;;;5010150;28;20034;-37
2022/08/01 10:46:57;;;;;;;1.95;1.48;;;26.30;56.30;;;;;;5007669;28;20308;-39
2022/08/01 10:49:27;;;;;;;1.50;1.40;;;26.50;54.80;;;;;;5007771;28;20032;-39
2022/08/01 10:51:53;;;;;;;2.13;1.77;;;27.00;53.50;;;;;;5005332;28;20100;-40
2022/08/01 10:54:19;;;;;;;2.92;1.70;;;26.80;52.90;;;;;;5005976;28;20042;-38
2022/08/01 10:56:47;;;;;;;2.03;1.45;;;26.70;54.10;;;;;;5007421;28;20030;-39
2022/08/01 10:59:25;;;;;;;1.60;1.50;;;27.10;52.90;;;;;;5005888;28;20061;-38
2022/08/01 11:02:00;;;;;;;1.50;1.40;;;27.50;52.70;;;;;;5007327;28;20062;-38
2022/08/01 11:04:48;;;;;;;1.55;1.20;;;27.40;48.60;;;;;;5002850;28;20030;-40
2022/08/01 11:07:20;;;;;;;1.48;1.38;;;27.10;52.10;;;;;;5006369;28;20053;-39
2022/08/01 11:09:50;;;;;;;1.80;1.33;;;27.00;51.50;;;;;;5006999;28;20439;-36
2022/08/01 11:12:17;;;;;;;2.50;1.50;;;26.50;50.90;;;;;;5006700;28;20018;-36
2022/08/01 11:14:58;;;;;;;1.70;1.23;;;26.40;51.60;;;;;;5005008;28;20056;-39
2022/08/01 11:17:33;;;;;;;1.40;1.30;;;25.90;50.60;;;;;;5007510;28;20435;-39
2022/08/01 11:20:11;;;;;;;3.50;1.52;;;25.50;51.70;;;;;;5007012;28;20030;-39
2022/08/01 11:22:56;;;;;;;;;;;25.50;52.60;;;;;;5007424;28;20036;-38
2022/08/01 11:25:22;;;;;;;2.00;1.60;;;25.50;55.20;;;;;;5006213;28;19909;-38
2022/08/01 11:27:48;;;;;;;1.73;1.48;;;25.50;57.70;;;;;;5005588;28;20080;-39
2022/08/01 11:30:13;;;;;;;2.30;1.70;;;25.40;59.20;;;;;;5007928;28;20136;-39
2022/08/01 11:32:51;;;;;;;2.47;1.80;;;25.40;59.40;;;;;;5006045;28;20026;-38
2022/08/01 11:35:18;;;;;;;4.75;1.70;;;25.40;60.50;;;;;;5005791;28;20049;-39
2022/08/01 11:37:43;;;;;;;1.90;1.70;;;25.40;61.10;;;;;;5005245;28;20034;-37
2022/08/01 11:40:26;;;;;;;4.30;1.50;;;25.40;60.40;;;;;;5007332;28;20052;-39
2022/08/01 11:43:13;;;;;;;1.77;1.67;;;25.40;61.60;;;;;;5004879;28;20034;-39
2022/08/01 11:45:57;;;;;;;2.08;1.60;;;25.50;61.90;;;;;;5009708;28;20057;-39
2022/08/01 11:48:24;;;;;;;2.00;1.80;;;25.60;60.70;;;;;;5010401;28;20569;-36
2022/08/01 11:50:52;;;;;;;2.58;1.80;;;25.60;60.10;;;;;;5014282;28;20160;-40
2022/08/01 11:53:20;;;;;;;4.88;1.75;;;25.70;62.00;;;;;;5008725;28;20491;-39
2022/08/01 11:55:49;;;;;;;2.42;1.70;;;26.00;59.70;;;;;;5028240;28;20053;-38
2022/08/01 11:58:15;;;;;;;2.60;1.70;;;26.10;56.80;;;;;;5011678;28;20034;-37
2022/08/01 12:00:49;;;;;;;2.40;1.75;;;26.10;57.60;;;;;;5013042;28;20034;-39
2022/08/01 12:03:16;;;;;;;3.97;1.75;;;26.10;58.50;;;;;;5014438;28;20164;-39
2022/08/01 12:05:44;;;;;;;6.18;2.05;;;26.00;57.20;;;;;;5009045;28;20036;-38
2022/08/01 12:08:09;;;;;;;2.70;2.15;;;26.10;56.90;;;;;;5012907;28;20663;-36
2022/08/01 12:10:36;;;;;;;2.55;1.63;;;26.00;57.60;;;;;;5014587;28;20026;-36
2022/08/01 12:13:05;;;;;;;1.95;1.63;;;25.90;59.00;;;;;;5013338;28;20699;-39
2022/08/01 12:15:38;;;;;;;1.92;1.70;;;25.90;60.30;;;;;;5012435;28;20033;-39
2022/08/01 12:18:06;;;;;;;1.77;1.50;;;25.80;59.60;;;;;;5012226;28;20113;-36
2022/08/01 12:20:33;;;;;;;;;;;25.80;60.80;;;;;;5028644;28;20124;-39
2022/08/01 12:23:07;;;;;;;2.00;1.50;;;26.00;61.40;;;;;;5012026;28;20330;-36
2022/08/01 12:25:34;;;;;;;1.63;1.52;;;26.00;60.90;;;;;;5011375;28;22122;-38
2022/08/01 12:28:03;;;;;;;1.50;1.40;;;26.00;62.40;;;;;;5011923;28;20466;-39
2022/08/01 12:30:30;;;;;;;3.30;2.00;;;26.10;61.10;;;;;;5012028;28;20574;-39
2022/08/01 12:32:56;;;;;;;;;;;25.70;58.00;;;;;;5012297;28;20048;-38
2022/08/01 12:35:28;;;;;;;2.38;1.90;;;25.70;59.00;;;;;;5011924;28;19917;-39
2022/08/01 12:38:02;;;;;;;3.30;1.98;;;25.60;60.30;;;;;;5010483;28;20053;-39
2022/08/01 12:40:34;;;;;;;25.27;10.63;;;25.70;61.90;;;;;;5028332;28;20041;-36
2022/08/01 12:43:05;;;;;;;6.47;3.75;;;25.80;62.60;;;;;;5011158;28;20033;-39
2022/08/01 12:45:44;;;;;;;39.17;17.45;;;25.90;59.80;;;;;;5011597;28;20060;-39
2022/08/01 12:48:12;;;;;;;111.13;45.13;;;25.90;60.50;;;;;;5012032;28;20034;-38
2022/08/01 12:50:39;;;;;;;27.92;12.23;;;26.00;56.90;;;;;;5014870;28;20042;-36
2022/08/01 12:53:05;;;;;;;10.23;4.00;;;26.00;59.30;;;;;;5014117;28;20460;-36
2022/08/01 12:55:31;;;;;;;2.65;1.75;;;26.00;61.30;;;;;;5013524;28;20499;-40
2022/08/01 12:58:09;;;;;;;33.40;10.80;;;26.20;56.60;;;;;;5011392;28;20041;-38